Freetown, Kentucky
Current Conditions -  °F | °C
As of 4:35 PM on Wednesday 22 Oct 2014 (Local Time) from KGLW Reporting Station
Clear Clear  
Wind Chill: 16°   Ceiling: Unl
Heat Index: 16°   Visibility: 10mi
Dew Point:   Wind: 6mph
Humidity: 48%   Direction: 70°ENE
Pressure: 30.21"   Gusts: NA
Location:  36.6549°N, 85.8315°W
Report Text: KGLW 222135Z AUTO 07005KT 10SM CLR 16/05 A3021 RMK AO2 T01590049
Loading
Personal Weather Stations






























Interactive Weather Map
Tropical Storm Tracking
New forecast layout! Learn more

10-Day Weather Forecast

Advertisements
Track Severe Weather on mobile